Charles B. Wheeler Downtown Airport
KMKC : now visible

Airfield :











YOU CAN JOIN US ON...

 
LOGIN :

Register | Disclaimer

   EN    FR    IT 

 









Legend :    VFR   Marginal VFR   IFR   Intensive IFR   Very Intensive IFR
Visi :
Ceiling :
>= 8 km
>= 3000ft
5 to 8 km
1000 to 3000 ft
1500m to 5 km
500 to 1000 ft
800 to 1500m
200 to 500 ft
< 800m
< 200 ft
Symbols :   Thunderstorms  Fog  Heavy snow  Heavy precipitations  Wind > 20 kt







- Airport Elevation : 759 ft
- IATA code : MKC


KMKC - Charles B. Wheeler Downtown

CURRENT METAR :
  • 221154Z 17010KT 10SM CLR 19/12 A2986 RMK AO2 SLP103 60000 T01940122 10228 20189 56013

EXPIRED METARs :
  • 221054Z 18012KT 10SM CLR 20/12 A2987 RMK AO2 TSB13E28 SLP108 T02000122
  • 221034Z 19008KT 10SM SCT100 20/12 A2987 RMK AO2 LTG DSNT NE TSB13E28 T02000122
  • 221019Z 19010KT 10SM TS BKN100 20/12 A2988 RMK AO2 TSB13 T02000122
  • 221001Z 00000KT 10SM FEW043 SCT110 21/11 A2986 RMK AO2 LTG DSNT W-NE T02060111
  • 220954Z 17012G18KT 10SM VCTS FEW043 BKN110 21/11 A2987 RMK AO2 LTG DSNT ALQDS RAB37E48 SLP107 P0000 T02110111
  • 220946Z 15010KT 10SM VCTS -RA FEW046 FEW070 BKN110 21/12 A2985 RMK AO2 LTG DSNT S AND W RAB37 P0000 T02060117

TAF KMKC
Valid from the 22 at 12:00 until the 23 at 12:00 UTC


221120Z 2212/2312 18011KT P6SM BKN040
FM221800 25010KT P6SM SCT050
FM222300 30010KT P6SM SCT040 SCT120
FM230400 34010KT P6SM BKN035
KZKC FIR / North America



MET'MAP, your aeronautical weather chart ! - Copyright ORBIFLY December 2007 - Disclaimer

ORBIFLY MET'MAP TEAM :

Programming & Development : Alexandra Zaïnal
Concept & Development : Baudouin d'Aumeries
Co-Development & Prog : Marc-Olivier Méhu
Technical & hardware support : Manuel Goepfert

Contact : metmap@orbifly.com




SOURCES & CREDITS :

   NOAA       Earth
Advisory